sensor_id;sensor_type;location;lat;lon;timestamp;P1;durP1;ratioP1;P2;durP2;ratioP2
19965;SDS011;10144;50.874;4.762;2024-01-16T00:01:07;19.10;;;5.03;;
19965;SDS011;10144;50.874;4.762;2024-01-16T00:03:34;19.57;;;5.07;;
19965;SDS011;10144;50.874;4.762;2024-01-16T00:08:32;20.97;;;4.73;;
19965;SDS011;10144;50.874;4.762;2024-01-16T00:11:01;13.33;;;4.70;;
19965;SDS011;10144;50.874;4.762;2024-01-16T00:13:27;16.07;;;4.60;;
19965;SDS011;10144;50.874;4.762;2024-01-16T00:15:54;16.73;;;5.13;;
19965;SDS011;10144;50.874;4.762;2024-01-16T00:18:24;16.43;;;4.90;;
19965;SDS011;10144;50.874;4.762;2024-01-16T00:20:50;13.50;;;4.17;;
19965;SDS011;10144;50.874;4.762;2024-01-16T00:23:17;15.80;;;4.23;;
19965;SDS011;10144;50.874;4.762;2024-01-16T00:25:46;15.47;;;4.23;;
19965;SDS011;10144;50.874;4.762;2024-01-16T00:28:22;15.63;;;4.33;;
19965;SDS011;10144;50.874;4.762;2024-01-16T00:30:47;17.93;;;4.17;;
19965;SDS011;10144;50.874;4.762;2024-01-16T00:33:21;11.50;;;3.80;;
19965;SDS011;10144;50.874;4.762;2024-01-16T00:35:47;13.87;;;3.93;;
19965;SDS011;10144;50.874;4.762;2024-01-16T00:38:26;12.57;;;3.93;;
19965;SDS011;10144;50.874;4.762;2024-01-16T00:40:57;20.13;;;3.80;;
19965;SDS011;10144;50.874;4.762;2024-01-16T00:43:23;18.20;;;3.87;;
19965;SDS011;10144;50.874;4.762;2024-01-16T00:45:49;17.17;;;3.67;;
19965;SDS011;10144;50.874;4.762;2024-01-16T00:48:18;17.83;;;4.40;;
19965;SDS011;10144;50.874;4.762;2024-01-16T00:50:45;20.53;;;4.53;;
19965;SDS011;10144;50.874;4.762;2024-01-16T00:55:42;15.57;;;4.00;;
19965;SDS011;10144;50.874;4.762;2024-01-16T00:58:08;16.03;;;4.17;;
19965;SDS011;10144;50.874;4.762;2024-01-16T01:00:36;21.17;;;4.03;;
19965;SDS011;10144;50.874;4.762;2024-01-16T01:03:03;14.77;;;3.97;;
19965;SDS011;10144;50.874;4.762;2024-01-16T01:05:29;15.97;;;4.57;;
19965;SDS011;10144;50.874;4.762;2024-01-16T01:07:55;16.27;;;4.20;;
19965;SDS011;10144;50.874;4.762;2024-01-16T01:12:51;16.53;;;4.00;;
19965;SDS011;10144;50.874;4.762;2024-01-16T01:15:24;21.53;;;4.17;;
19965;SDS011;10144;50.874;4.762;2024-01-16T01:17:51;14.57;;;3.83;;
19965;SDS011;10144;50.874;4.762;2024-01-16T01:20:28;19.07;;;4.80;;
19965;SDS011;10144;50.874;4.762;2024-01-16T01:22:57;20.77;;;3.90;;
19965;SDS011;10144;50.874;4.762;2024-01-16T01:25:27;17.27;;;4.57;;
19965;SDS011;10144;50.874;4.762;2024-01-16T01:27:54;16.27;;;3.67;;
19965;SDS011;10144;50.874;4.762;2024-01-16T01:30:26;18.37;;;4.33;;
19965;SDS011;10144;50.874;4.762;2024-01-16T01:32:52;19.07;;;4.70;;
19965;SDS011;10144;50.874;4.762;2024-01-16T01:35:18;15.57;;;3.73;;
19965;SDS011;10144;50.874;4.762;2024-01-16T01:37:47;14.43;;;3.50;;
19965;SDS011;10144;50.874;4.762;2024-01-16T01:40:14;17.73;;;3.93;;
19965;SDS011;10144;50.874;4.762;2024-01-16T01:42:43;16.67;;;4.03;;
19965;SDS011;10144;50.874;4.762;2024-01-16T01:45:14;18.83;;;3.70;;
19965;SDS011;10144;50.874;4.762;2024-01-16T01:47:47;13.13;;;3.83;;
19965;SDS011;10144;50.874;4.762;2024-01-16T01:50:16;15.33;;;3.87;;
19965;SDS011;10144;50.874;4.762;2024-01-16T01:52:43;25.73;;;4.00;;
19965;SDS011;10144;50.874;4.762;2024-01-16T01:55:16;14.93;;;3.63;;
19965;SDS011;10144;50.874;4.762;2024-01-16T01:57:43;14.13;;;3.43;;
19965;SDS011;10144;50.874;4.762;2024-01-16T02:02:44;23.03;;;4.57;;
19965;SDS011;10144;50.874;4.762;2024-01-16T02:05:14;14.17;;;3.57;;
19965;SDS011;10144;50.874;4.762;2024-01-16T02:10:09;15.17;;;3.80;;
19965;SDS011;10144;50.874;4.762;2024-01-16T02:15:05;22.00;;;3.60;;
19965;SDS011;10144;50.874;4.762;2024-01-16T02:17:47;20.53;;;3.40;;
19965;SDS011;10144;50.874;4.762;2024-01-16T02:20:13;16.83;;;4.10;;
19965;SDS011;10144;50.874;4.762;2024-01-16T02:22:43;21.43;;;3.80;;
19965;SDS011;10144;50.874;4.762;2024-01-16T02:25:15;15.53;;;3.57;;
19965;SDS011;10144;50.874;4.762;2024-01-16T02:27:40;11.93;;;3.90;;
19965;SDS011;10144;50.874;4.762;2024-01-16T02:30:08;16.83;;;3.87;;
19965;SDS011;10144;50.874;4.762;2024-01-16T02:32:34;15.40;;;4.13;;
19965;SDS011;10144;50.874;4.762;2024-01-16T02:35:00;19.03;;;3.97;;
19965;SDS011;10144;50.874;4.762;2024-01-16T02:37:29;12.50;;;3.40;;
19965;SDS011;10144;50.874;4.762;2024-01-16T02:39:54;14.57;;;3.50;;
19965;SDS011;10144;50.874;4.762;2024-01-16T02:42:20;16.70;;;3.97;;
19965;SDS011;10144;50.874;4.762;2024-01-16T02:44:49;15.90;;;3.70;;
19965;SDS011;10144;50.874;4.762;2024-01-16T02:47:24;13.93;;;4.13;;
19965;SDS011;10144;50.874;4.762;2024-01-16T02:49:51;20.23;;;3.87;;
19965;SDS011;10144;50.874;4.762;2024-01-16T02:52:19;17.17;;;3.67;;
19965;SDS011;10144;50.874;4.762;2024-01-16T02:54:50;18.53;;;3.90;;
19965;SDS011;10144;50.874;4.762;2024-01-16T02:57:19;15.27;;;3.90;;
19965;SDS011;10144;50.874;4.762;2024-01-16T02:59:46;16.93;;;3.60;;
19965;SDS011;10144;50.874;4.762;2024-01-16T03:02:14;12.50;;;3.30;;
19965;SDS011;10144;50.874;4.762;2024-01-16T03:07:08;18.33;;;3.87;;
19965;SDS011;10144;50.874;4.762;2024-01-16T03:12:05;12.47;;;3.83;;
19965;SDS011;10144;50.874;4.762;2024-01-16T03:14:32;14.80;;;3.83;;
19965;SDS011;10144;50.874;4.762;2024-01-16T03:17:07;15.37;;;3.83;;
19965;SDS011;10144;50.874;4.762;2024-01-16T03:19:34;25.63;;;3.83;;
19965;SDS011;10144;50.874;4.762;2024-01-16T03:22:03;16.90;;;4.30;;
19965;SDS011;10144;50.874;4.762;2024-01-16T03:24:29;12.47;;;3.90;;
19965;SDS011;10144;50.874;4.762;2024-01-16T03:29:30;16.00;;;4.10;;
19965;SDS011;10144;50.874;4.762;2024-01-16T03:31:58;19.13;;;3.60;;
19965;SDS011;10144;50.874;4.762;2024-01-16T03:34:25;17.30;;;4.00;;
19965;SDS011;10144;50.874;4.762;2024-01-16T03:36:51;17.50;;;3.60;;
19965;SDS011;10144;50.874;4.762;2024-01-16T03:41:46;19.13;;;4.10;;
19965;SDS011;10144;50.874;4.762;2024-01-16T03:46:47;15.60;;;4.00;;
19965;SDS011;10144;50.874;4.762;2024-01-16T03:49:12;19.53;;;4.20;;
19965;SDS011;10144;50.874;4.762;2024-01-16T03:51:38;13.57;;;3.47;;
19965;SDS011;10144;50.874;4.762;2024-01-16T03:54:04;24.83;;;4.13;;
19965;SDS011;10144;50.874;4.762;2024-01-16T03:58:59;20.73;;;4.47;;
19965;SDS011;10144;50.874;4.762;2024-01-16T04:01:35;13.77;;;4.37;;
19965;SDS011;10144;50.874;4.762;2024-01-16T04:04:04;11.93;;;3.90;;
19965;SDS011;10144;50.874;4.762;2024-01-16T04:06:34;19.37;;;4.53;;
19965;SDS011;10144;50.874;4.762;2024-01-16T04:09:07;18.13;;;4.17;;
19965;SDS011;10144;50.874;4.762;2024-01-16T04:11:39;13.23;;;4.00;;
19965;SDS011;10144;50.874;4.762;2024-01-16T04:14:06;18.17;;;4.57;;
19965;SDS011;10144;50.874;4.762;2024-01-16T04:16:39;9.97;;;3.90;;
19965;SDS011;10144;50.874;4.762;2024-01-16T04:19:10;18.23;;;4.20;;
19965;SDS011;10144;50.874;4.762;2024-01-16T04:21:36;15.13;;;4.37;;
19965;SDS011;10144;50.874;4.762;2024-01-16T04:24:03;18.67;;;4.30;;
19965;SDS011;10144;50.874;4.762;2024-01-16T04:26:39;22.63;;;4.60;;
19965;SDS011;10144;50.874;4.762;2024-01-16T04:29:06;18.67;;;4.60;;
19965;SDS011;10144;50.874;4.762;2024-01-16T04:31:33;15.87;;;3.90;;
19965;SDS011;10144;50.874;4.762;2024-01-16T04:34:05;23.73;;;4.60;;
19965;SDS011;10144;50.874;4.762;2024-01-16T04:36:31;24.20;;;4.93;;
19965;SDS011;10144;50.874;4.762;2024-01-16T04:38:57;16.00;;;4.47;;
19965;SDS011;10144;50.874;4.762;2024-01-16T04:41:29;16.87;;;4.57;;
19965;SDS011;10144;50.874;4.762;2024-01-16T04:43:55;19.03;;;4.40;;
19965;SDS011;10144;50.874;4.762;2024-01-16T04:46:21;13.77;;;4.33;;
19965;SDS011;10144;50.874;4.762;2024-01-16T04:48:47;17.17;;;4.87;;
19965;SDS011;10144;50.874;4.762;2024-01-16T04:51:14;22.30;;;4.77;;
19965;SDS011;10144;50.874;4.762;2024-01-16T04:53:40;14.93;;;4.70;;
19965;SDS011;10144;50.874;4.762;2024-01-16T04:56:05;18.80;;;5.10;;
19965;SDS011;10144;50.874;4.762;2024-01-16T04:58:34;19.53;;;5.13;;
19965;SDS011;10144;50.874;4.762;2024-01-16T05:03:32;25.40;;;5.67;;
19965;SDS011;10144;50.874;4.762;2024-01-16T05:05:57;21.77;;;5.50;;
19965;SDS011;10144;50.874;4.762;2024-01-16T05:08:23;17.93;;;5.43;;
19965;SDS011;10144;50.874;4.762;2024-01-16T05:10:55;22.47;;;5.90;;
19965;SDS011;10144;50.874;4.762;2024-01-16T05:13:23;18.30;;;5.70;;
19965;SDS011;10144;50.874;4.762;2024-01-16T05:15:49;21.60;;;5.73;;
19965;SDS011;10144;50.874;4.762;2024-01-16T05:18:16;17.80;;;6.00;;
19965;SDS011;10144;50.874;4.762;2024-01-16T05:20:45;17.67;;;5.40;;
19965;SDS011;10144;50.874;4.762;2024-01-16T05:23:13;20.63;;;5.77;;
19965;SDS011;10144;50.874;4.762;2024-01-16T05:25:45;23.93;;;5.67;;
19965;SDS011;10144;50.874;4.762;2024-01-16T05:28:10;25.60;;;5.53;;
19965;SDS011;10144;50.874;4.762;2024-01-16T05:30:36;18.80;;;6.03;;
19965;SDS011;10144;50.874;4.762;2024-01-16T05:33:03;21.90;;;5.80;;
19965;SDS011;10144;50.874;4.762;2024-01-16T05:35:34;19.00;;;5.40;;
19965;SDS011;10144;50.874;4.762;2024-01-16T05:38:09;26.77;;;6.47;;
19965;SDS011;10144;50.874;4.762;2024-01-16T05:40:37;21.70;;;5.83;;
19965;SDS011;10144;50.874;4.762;2024-01-16T05:43:07;19.20;;;5.90;;
19965;SDS011;10144;50.874;4.762;2024-01-16T05:45:38;21.53;;;5.87;;
19965;SDS011;10144;50.874;4.762;2024-01-16T05:48:04;20.60;;;6.10;;
19965;SDS011;10144;50.874;4.762;2024-01-16T05:50:33;27.37;;;6.50;;
19965;SDS011;10144;50.874;4.762;2024-01-16T05:53:03;18.33;;;6.33;;
19965;SDS011;10144;50.874;4.762;2024-01-16T05:55:34;19.83;;;6.13;;
19965;SDS011;10144;50.874;4.762;2024-01-16T05:58:02;27.53;;;6.77;;
19965;SDS011;10144;50.874;4.762;2024-01-16T06:00:28;23.77;;;6.40;;
19965;SDS011;10144;50.874;4.762;2024-01-16T06:02:55;19.83;;;6.47;;
19965;SDS011;10144;50.874;4.762;2024-01-16T06:05:23;19.00;;;6.03;;
19965;SDS011;10144;50.874;4.762;2024-01-16T06:07:52;20.37;;;6.33;;
19965;SDS011;10144;50.874;4.762;2024-01-16T06:10:18;23.53;;;6.73;;
19965;SDS011;10144;50.874;4.762;2024-01-16T06:12:47;19.70;;;6.13;;
19965;SDS011;10144;50.874;4.762;2024-01-16T06:15:13;27.30;;;7.07;;
19965;SDS011;10144;50.874;4.762;2024-01-16T06:20:07;21.53;;;6.33;;
19965;SDS011;10144;50.874;4.762;2024-01-16T06:22:39;25.43;;;6.23;;
19965;SDS011;10144;50.874;4.762;2024-01-16T06:25:05;25.33;;;6.30;;
19965;SDS011;10144;50.874;4.762;2024-01-16T06:27:31;25.03;;;7.07;;
19965;SDS011;10144;50.874;4.762;2024-01-16T06:30:00;24.87;;;6.90;;
19965;SDS011;10144;50.874;4.762;2024-01-16T06:32:27;26.43;;;6.80;;
19965;SDS011;10144;50.874;4.762;2024-01-16T06:34:53;19.40;;;6.70;;
19965;SDS011;10144;50.874;4.762;2024-01-16T06:37:21;22.13;;;6.40;;
19965;SDS011;10144;50.874;4.762;2024-01-16T06:39:47;17.60;;;6.17;;
19965;SDS011;10144;50.874;4.762;2024-01-16T06:42:13;24.00;;;7.00;;
19965;SDS011;10144;50.874;4.762;2024-01-16T06:44:39;22.90;;;6.60;;
19965;SDS011;10144;50.874;4.762;2024-01-16T06:47:05;24.90;;;6.40;;
19965;SDS011;10144;50.874;4.762;2024-01-16T06:49:30;21.27;;;6.40;;
19965;SDS011;10144;50.874;4.762;2024-01-16T06:51:57;21.90;;;6.23;;
19965;SDS011;10144;50.874;4.762;2024-01-16T06:54:24;22.03;;;6.33;;
19965;SDS011;10144;50.874;4.762;2024-01-16T06:56:54;21.57;;;6.47;;
19965;SDS011;10144;50.874;4.762;2024-01-16T06:59:22;24.93;;;6.03;;
19965;SDS011;10144;50.874;4.762;2024-01-16T07:01:51;22.33;;;6.90;;
19965;SDS011;10144;50.874;4.762;2024-01-16T07:04:20;21.20;;;6.30;;
19965;SDS011;10144;50.874;4.762;2024-01-16T07:06:49;17.17;;;6.27;;
19965;SDS011;10144;50.874;4.762;2024-01-16T07:09:18;20.47;;;6.10;;
19965;SDS011;10144;50.874;4.762;2024-01-16T07:11:47;30.20;;;8.80;;
19965;SDS011;10144;50.874;4.762;2024-01-16T07:14:13;17.63;;;6.50;;
19965;SDS011;10144;50.874;4.762;2024-01-16T07:16:41;17.87;;;6.10;;
19965;SDS011;10144;50.874;4.762;2024-01-16T07:19:07;25.43;;;6.67;;
19965;SDS011;10144;50.874;4.762;2024-01-16T07:21:36;22.37;;;6.30;;
19965;SDS011;10144;50.874;4.762;2024-01-16T07:24:08;16.07;;;6.40;;
19965;SDS011;10144;50.874;4.762;2024-01-16T07:26:33;18.97;;;6.20;;
19965;SDS011;10144;50.874;4.762;2024-01-16T07:34:03;19.80;;;6.13;;
19965;SDS011;10144;50.874;4.762;2024-01-16T07:36:29;20.17;;;6.33;;
19965;SDS011;10144;50.874;4.762;2024-01-16T07:38:55;29.10;;;6.50;;
19965;SDS011;10144;50.874;4.762;2024-01-16T07:41:27;17.50;;;5.80;;
19965;SDS011;10144;50.874;4.762;2024-01-16T07:43:56;22.87;;;6.37;;
19965;SDS011;10144;50.874;4.762;2024-01-16T07:46:27;26.77;;;6.50;;
19965;SDS011;10144;50.874;4.762;2024-01-16T07:48:56;23.10;;;6.27;;
19965;SDS011;10144;50.874;4.762;2024-01-16T07:51:29;22.03;;;6.70;;
19965;SDS011;10144;50.874;4.762;2024-01-16T07:54:04;23.10;;;5.90;;
19965;SDS011;10144;50.874;4.762;2024-01-16T07:56:34;19.37;;;6.20;;
19965;SDS011;10144;50.874;4.762;2024-01-16T07:59:04;22.67;;;5.97;;
19965;SDS011;10144;50.874;4.762;2024-01-16T08:01:36;19.33;;;5.90;;
19965;SDS011;10144;50.874;4.762;2024-01-16T08:04:03;18.13;;;5.50;;
19965;SDS011;10144;50.874;4.762;2024-01-16T08:09:15;18.73;;;5.90;;
19965;SDS011;10144;50.874;4.762;2024-01-16T08:14:10;21.97;;;6.00;;
19965;SDS011;10144;50.874;4.762;2024-01-16T08:16:37;14.17;;;5.87;;
19965;SDS011;10144;50.874;4.762;2024-01-16T08:24:09;16.43;;;6.00;;
19965;SDS011;10144;50.874;4.762;2024-01-16T08:26:37;21.97;;;6.87;;
19965;SDS011;10144;50.874;4.762;2024-01-16T08:29:09;20.60;;;5.40;;
19965;SDS011;10144;50.874;4.762;2024-01-16T08:31:36;18.20;;;5.07;;
19965;SDS011;10144;50.874;4.762;2024-01-16T08:34:08;18.03;;;5.37;;
19965;SDS011;10144;50.874;4.762;2024-01-16T08:36:35;24.93;;;5.63;;
19965;SDS011;10144;50.874;4.762;2024-01-16T08:39:01;15.40;;;4.83;;
19965;SDS011;10144;50.874;4.762;2024-01-16T08:41:30;16.53;;;5.47;;
19965;SDS011;10144;50.874;4.762;2024-01-16T08:46:25;20.00;;;5.90;;
19965;SDS011;10144;50.874;4.762;2024-01-16T08:48:57;16.00;;;4.97;;
19965;SDS011;10144;50.874;4.762;2024-01-16T08:51:26;15.83;;;5.30;;
19965;SDS011;10144;50.874;4.762;2024-01-16T08:53:52;18.63;;;5.67;;
19965;SDS011;10144;50.874;4.762;2024-01-16T08:56:18;16.57;;;5.30;;
19965;SDS011;10144;50.874;4.762;2024-01-16T09:01:14;19.83;;;4.80;;
19965;SDS011;10144;50.874;4.762;2024-01-16T09:06:15;15.77;;;5.03;;
19965;SDS011;10144;50.874;4.762;2024-01-16T09:08:41;18.53;;;5.30;;
19965;SDS011;10144;50.874;4.762;2024-01-16T09:11:06;19.87;;;5.47;;
19965;SDS011;10144;50.874;4.762;2024-01-16T09:13:38;13.90;;;4.87;;
19965;SDS011;10144;50.874;4.762;2024-01-16T09:16:06;12.33;;;4.87;;
19965;SDS011;10144;50.874;4.762;2024-01-16T09:18:34;18.17;;;5.00;;
19965;SDS011;10144;50.874;4.762;2024-01-16T09:21:00;24.63;;;5.33;;
19965;SDS011;10144;50.874;4.762;2024-01-16T09:23:26;15.90;;;4.80;;
19965;SDS011;10144;50.874;4.762;2024-01-16T09:25:52;15.73;;;4.83;;
19965;SDS011;10144;50.874;4.762;2024-01-16T09:28:18;21.27;;;4.57;;
19965;SDS011;10144;50.874;4.762;2024-01-16T09:30:43;18.77;;;5.03;;
19965;SDS011;10144;50.874;4.762;2024-01-16T09:33:09;11.83;;;4.60;;
19965;SDS011;10144;50.874;4.762;2024-01-16T09:35:35;16.33;;;4.87;;
19965;SDS011;10144;50.874;4.762;2024-01-16T09:38:01;14.83;;;4.63;;
19965;SDS011;10144;50.874;4.762;2024-01-16T09:40:29;15.43;;;5.00;;
19965;SDS011;10144;50.874;4.762;2024-01-16T09:42:55;13.80;;;4.63;;
19965;SDS011;10144;50.874;4.762;2024-01-16T09:45:21;16.70;;;4.90;;
19965;SDS011;10144;50.874;4.762;2024-01-16T09:47:49;14.27;;;4.23;;
19965;SDS011;10144;50.874;4.762;2024-01-16T09:50:16;16.33;;;4.63;;
19965;SDS011;10144;50.874;4.762;2024-01-16T09:52:47;15.30;;;4.70;;
19965;SDS011;10144;50.874;4.762;2024-01-16T09:55:16;17.17;;;5.63;;
19965;SDS011;10144;50.874;4.762;2024-01-16T09:57:43;21.20;;;6.13;;
19965;SDS011;10144;50.874;4.762;2024-01-16T10:00:11;20.93;;;6.30;;
19965;SDS011;10144;50.874;4.762;2024-01-16T10:02:38;18.97;;;5.50;;
19965;SDS011;10144;50.874;4.762;2024-01-16T10:05:06;14.93;;;4.90;;
19965;SDS011;10144;50.874;4.762;2024-01-16T10:07:37;15.20;;;4.70;;
19965;SDS011;10144;50.874;4.762;2024-01-16T10:10:03;11.07;;;4.37;;
19965;SDS011;10144;50.874;4.762;2024-01-16T10:12:30;13.93;;;4.27;;
19965;SDS011;10144;50.874;4.762;2024-01-16T10:14:56;12.30;;;4.13;;
19965;SDS011;10144;50.874;4.762;2024-01-16T10:17:22;16.57;;;4.13;;
19965;SDS011;10144;50.874;4.762;2024-01-16T10:20:00;16.63;;;4.87;;
19965;SDS011;10144;50.874;4.762;2024-01-16T10:22:29;14.93;;;4.68;;
19965;SDS011;10144;50.874;4.762;2024-01-16T10:27:42;15.68;;;4.30;;
19965;SDS011;10144;50.874;4.762;2024-01-16T10:30:08;13.70;;;4.78;;
19965;SDS011;10144;50.874;4.762;2024-01-16T10:32:38;12.60;;;3.70;;
19965;SDS011;10144;50.874;4.762;2024-01-16T10:35:08;13.05;;;4.25;;
19965;SDS011;10144;50.874;4.762;2024-01-16T10:37:42;11.18;;;3.90;;
19965;SDS011;10144;50.874;4.762;2024-01-16T10:40:14;9.85;;;4.07;;
19965;SDS011;10144;50.874;4.762;2024-01-16T10:42:45;12.10;;;3.85;;
19965;SDS011;10144;50.874;4.762;2024-01-16T10:45:18;13.40;;;3.50;;
19965;SDS011;10144;50.874;4.762;2024-01-16T10:47:47;11.07;;;4.05;;
19965;SDS011;10144;50.874;4.762;2024-01-16T10:50:14;10.68;;;3.58;;
19965;SDS011;10144;50.874;4.762;2024-01-16T10:52:44;10.52;;;3.38;;
19965;SDS011;10144;50.874;4.762;2024-01-16T10:55:14;12.82;;;3.85;;
19965;SDS011;10144;50.874;4.762;2024-01-16T10:57:47;11.25;;;3.42;;
19965;SDS011;10144;50.874;4.762;2024-01-16T11:00:18;9.80;;;3.80;;
19965;SDS011;10144;50.874;4.762;2024-01-16T11:02:50;11.60;;;3.95;;
19965;SDS011;10144;50.874;4.762;2024-01-16T11:05:29;11.55;;;3.53;;
19965;SDS011;10144;50.874;4.762;2024-01-16T11:08:00;14.00;;;3.65;;
19965;SDS011;10144;50.874;4.762;2024-01-16T11:10:26;11.25;;;3.78;;
19965;SDS011;10144;50.874;4.762;2024-01-16T11:12:53;12.70;;;3.42;;
19965;SDS011;10144;50.874;4.762;2024-01-16T11:15:20;12.20;;;3.50;;
19965;SDS011;10144;50.874;4.762;2024-01-16T11:17:46;12.45;;;4.07;;
19965;SDS011;10144;50.874;4.762;2024-01-16T11:20:14;12.48;;;3.92;;
19965;SDS011;10144;50.874;4.762;2024-01-16T11:22:44;8.32;;;3.17;;
19965;SDS011;10144;50.874;4.762;2024-01-16T11:25:12;10.63;;;3.80;;
19965;SDS011;10144;50.874;4.762;2024-01-16T11:27:42;13.00;;;3.22;;
19965;SDS011;10144;50.874;4.762;2024-01-16T11:30:10;10.73;;;3.42;;
19965;SDS011;10144;50.874;4.762;2024-01-16T11:32:40;8.80;;;2.88;;
19965;SDS011;10144;50.874;4.762;2024-01-16T11:35:09;9.13;;;3.17;;
19965;SDS011;10144;50.874;4.762;2024-01-16T11:37:36;13.00;;;3.22;;
19965;SDS011;10144;50.874;4.762;2024-01-16T11:42:45;12.25;;;3.03;;
19965;SDS011;10144;50.874;4.762;2024-01-16T11:50:48;11.43;;;3.10;;
19965;SDS011;10144;50.874;4.762;2024-01-16T12:01:35;11.68;;;3.03;;
19965;SDS011;10144;50.874;4.762;2024-01-16T12:04:07;6.28;;;2.63;;
19965;SDS011;10144;50.874;4.762;2024-01-16T12:06:35;7.72;;;2.40;;
19965;SDS011;10144;50.874;4.762;2024-01-16T12:09:12;8.90;;;2.75;;
19965;SDS011;10144;50.874;4.762;2024-01-16T12:11:42;9.50;;;2.60;;
19965;SDS011;10144;50.874;4.762;2024-01-16T12:14:10;10.25;;;2.50;;
19965;SDS011;10144;50.874;4.762;2024-01-16T12:16:37;8.32;;;2.90;;
19965;SDS011;10144;50.874;4.762;2024-01-16T12:19:04;7.45;;;2.50;;
19965;SDS011;10144;50.874;4.762;2024-01-16T12:21:39;8.18;;;2.85;;
19965;SDS011;10144;50.874;4.762;2024-01-16T12:24:06;6.32;;;2.40;;
19965;SDS011;10144;50.874;4.762;2024-01-16T12:26:32;8.70;;;2.85;;
19965;SDS011;10144;50.874;4.762;2024-01-16T12:28:58;8.15;;;2.45;;
19965;SDS011;10144;50.874;4.762;2024-01-16T12:31:24;9.05;;;2.78;;
19965;SDS011;10144;50.874;4.762;2024-01-16T12:33:50;7.85;;;2.70;;
19965;SDS011;10144;50.874;4.762;2024-01-16T12:36:17;6.57;;;2.42;;
19965;SDS011;10144;50.874;4.762;2024-01-16T12:38:43;9.25;;;2.95;;
19965;SDS011;10144;50.874;4.762;2024-01-16T12:41:09;8.18;;;2.95;;
19965;SDS011;10144;50.874;4.762;2024-01-16T12:43:36;8.82;;;2.70;;
19965;SDS011;10144;50.874;4.762;2024-01-16T12:46:02;9.07;;;2.45;;
19965;SDS011;10144;50.874;4.762;2024-01-16T12:48:28;7.03;;;2.92;;
19965;SDS011;10144;50.874;4.762;2024-01-16T12:51:03;7.10;;;2.70;;
19965;SDS011;10144;50.874;4.762;2024-01-16T12:53:31;10.52;;;2.50;;
19965;SDS011;10144;50.874;4.762;2024-01-16T12:55:59;9.05;;;2.72;;
19965;SDS011;10144;50.874;4.762;2024-01-16T12:58:26;10.60;;;2.80;;
19965;SDS011;10144;50.874;4.762;2024-01-16T13:03:46;8.13;;;2.65;;
19965;SDS011;10144;50.874;4.762;2024-01-16T13:06:16;9.52;;;2.72;;
19965;SDS011;10144;50.874;4.762;2024-01-16T13:08:45;8.80;;;2.80;;
19965;SDS011;10144;50.874;4.762;2024-01-16T13:11:16;9.55;;;2.85;;
19965;SDS011;10144;50.874;4.762;2024-01-16T13:13:45;8.55;;;2.70;;
19965;SDS011;10144;50.874;4.762;2024-01-16T13:16:16;11.93;;;2.72;;
19965;SDS011;10144;50.874;4.762;2024-01-16T13:18:42;7.73;;;2.83;;
19965;SDS011;10144;50.874;4.762;2024-01-16T13:21:08;13.30;;;2.77;;
19965;SDS011;10144;50.874;4.762;2024-01-16T13:23:34;11.23;;;2.73;;
19965;SDS011;10144;50.874;4.762;2024-01-16T13:26:00;10.63;;;2.53;;
19965;SDS011;10144;50.874;4.762;2024-01-16T13:28:29;9.50;;;2.77;;
19965;SDS011;10144;50.874;4.762;2024-01-16T13:30:55;11.40;;;2.60;;
19965;SDS011;10144;50.874;4.762;2024-01-16T13:33:22;9.50;;;2.83;;
19965;SDS011;10144;50.874;4.762;2024-01-16T13:35:48;9.37;;;2.43;;
19965;SDS011;10144;50.874;4.762;2024-01-16T13:38:15;9.67;;;2.37;;
19965;SDS011;10144;50.874;4.762;2024-01-16T13:40:41;8.20;;;2.60;;
19965;SDS011;10144;50.874;4.762;2024-01-16T13:43:07;12.60;;;2.80;;
19965;SDS011;10144;50.874;4.762;2024-01-16T13:45:33;14.43;;;2.97;;
19965;SDS011;10144;50.874;4.762;2024-01-16T13:48:01;8.67;;;2.93;;
19965;SDS011;10144;50.874;4.762;2024-01-16T13:50:27;8.00;;;2.60;;
19965;SDS011;10144;50.874;4.762;2024-01-16T13:52:53;14.43;;;3.03;;
19965;SDS011;10144;50.874;4.762;2024-01-16T13:55:21;8.37;;;3.17;;
19965;SDS011;10144;50.874;4.762;2024-01-16T13:57:47;12.17;;;2.87;;
19965;SDS011;10144;50.874;4.762;2024-01-16T14:00:13;9.10;;;2.50;;
19965;SDS011;10144;50.874;4.762;2024-01-16T14:02:40;11.00;;;2.67;;
19965;SDS011;10144;50.874;4.762;2024-01-16T14:05:16;9.67;;;2.60;;
19965;SDS011;10144;50.874;4.762;2024-01-16T14:07:43;8.67;;;2.80;;
19965;SDS011;10144;50.874;4.762;2024-01-16T14:10:13;10.53;;;2.90;;
19965;SDS011;10144;50.874;4.762;2024-01-16T14:12:40;9.43;;;2.70;;
19965;SDS011;10144;50.874;4.762;2024-01-16T14:15:08;7.90;;;2.50;;
19965;SDS011;10144;50.874;4.762;2024-01-16T14:17:41;10.63;;;2.90;;
19965;SDS011;10144;50.874;4.762;2024-01-16T14:20:12;11.57;;;3.17;;
19965;SDS011;10144;50.874;4.762;2024-01-16T14:22:38;10.33;;;3.07;;
19965;SDS011;10144;50.874;4.762;2024-01-16T14:25:08;10.03;;;3.10;;
19965;SDS011;10144;50.874;4.762;2024-01-16T14:27:43;9.60;;;2.90;;
19965;SDS011;10144;50.874;4.762;2024-01-16T14:30:11;13.37;;;2.90;;
19965;SDS011;10144;50.874;4.762;2024-01-16T14:32:39;12.97;;;3.10;;
19965;SDS011;10144;50.874;4.762;2024-01-16T14:35:09;9.17;;;2.93;;
19965;SDS011;10144;50.874;4.762;2024-01-16T14:37:36;11.70;;;3.00;;
19965;SDS011;10144;50.874;4.762;2024-01-16T14:40:03;8.63;;;2.67;;
19965;SDS011;10144;50.874;4.762;2024-01-16T14:42:50;10.47;;;2.83;;
19965;SDS011;10144;50.874;4.762;2024-01-16T14:45:18;11.80;;;2.80;;
19965;SDS011;10144;50.874;4.762;2024-01-16T14:47:48;15.17;;;3.43;;
19965;SDS011;10144;50.874;4.762;2024-01-16T14:50:15;11.47;;;2.90;;
19965;SDS011;10144;50.874;4.762;2024-01-16T14:52:45;13.67;;;3.03;;
19965;SDS011;10144;50.874;4.762;2024-01-16T14:55:11;10.73;;;2.67;;
19965;SDS011;10144;50.874;4.762;2024-01-16T14:57:37;9.50;;;2.70;;
19965;SDS011;10144;50.874;4.762;2024-01-16T15:00:12;8.10;;;2.53;;
19965;SDS011;10144;50.874;4.762;2024-01-16T15:02:46;9.03;;;2.80;;
19965;SDS011;10144;50.874;4.762;2024-01-16T15:05:13;10.80;;;2.80;;
19965;SDS011;10144;50.874;4.762;2024-01-16T15:07:39;8.90;;;2.63;;
19965;SDS011;10144;50.874;4.762;2024-01-16T15:10:06;10.80;;;2.80;;
19965;SDS011;10144;50.874;4.762;2024-01-16T15:12:34;9.57;;;3.20;;
19965;SDS011;10144;50.874;4.762;2024-01-16T15:15:00;11.43;;;2.90;;
19965;SDS011;10144;50.874;4.762;2024-01-16T15:17:28;10.17;;;2.80;;
19965;SDS011;10144;50.874;4.762;2024-01-16T15:19:54;10.00;;;3.00;;
19965;SDS011;10144;50.874;4.762;2024-01-16T15:22:20;13.03;;;2.60;;
19965;SDS011;10144;50.874;4.762;2024-01-16T15:24:46;7.30;;;3.00;;
19965;SDS011;10144;50.874;4.762;2024-01-16T15:27:12;9.00;;;3.37;;
19965;SDS011;10144;50.874;4.762;2024-01-16T15:29:38;12.63;;;2.87;;
19965;SDS011;10144;50.874;4.762;2024-01-16T15:32:04;8.27;;;2.73;;
19965;SDS011;10144;50.874;4.762;2024-01-16T15:34:30;11.03;;;3.20;;
19965;SDS011;10144;50.874;4.762;2024-01-16T15:36:55;10.53;;;3.20;;
19965;SDS011;10144;50.874;4.762;2024-01-16T15:39:22;8.13;;;2.97;;
19965;SDS011;10144;50.874;4.762;2024-01-16T15:41:48;9.80;;;3.07;;
19965;SDS011;10144;50.874;4.762;2024-01-16T15:44:14;26.97;;;7.70;;
19965;SDS011;10144;50.874;4.762;2024-01-16T15:46:58;40.47;;;13.07;;
19965;SDS011;10144;50.874;4.762;2024-01-16T15:51:56;15.83;;;5.13;;
19965;SDS011;10144;50.874;4.762;2024-01-16T15:54:26;14.17;;;4.63;;
19965;SDS011;10144;50.874;4.762;2024-01-16T15:59:27;12.63;;;4.47;;
19965;SDS011;10144;50.874;4.762;2024-01-16T16:01:59;15.30;;;5.17;;
19965;SDS011;10144;50.874;4.762;2024-01-16T16:04:26;16.03;;;4.03;;
19965;SDS011;10144;50.874;4.762;2024-01-16T16:06:51;15.30;;;4.20;;